createdAt,value
2017-10-19T21:45:04.251Z,97.43
2017-10-19T21:47:31.798Z,97.58
2017-10-19T21:50:04.552Z,98.00
2017-10-19T21:52:32.104Z,97.75
2017-10-19T21:54:59.657Z,97.79
2017-10-19T21:57:27.305Z,97.65
2017-10-19T21:59:54.861Z,97.88
2017-10-19T22:02:29.377Z,97.92
2017-10-19T22:04:56.925Z,98.01
2017-10-19T22:07:24.596Z,98.03
2017-10-19T22:09:52.201Z,97.86
2017-10-19T22:12:19.820Z,97.98
2017-10-19T22:14:47.367Z,98.07
2017-10-19T22:17:14.978Z,98.32
2017-10-19T22:19:42.542Z,98.02
2017-10-19T22:22:10.092Z,98.19
2017-10-19T22:24:37.677Z,98.29
2017-10-19T22:27:05.273Z,98.09
2017-10-19T22:29:32.846Z,98.21
2017-10-19T22:32:02.590Z,98.10
2017-10-19T22:34:30.189Z,98.10
2017-10-19T22:36:57.777Z,97.92
2017-10-19T22:39:25.837Z,97.86
2017-10-19T22:41:53.435Z,97.72
2017-10-19T22:44:20.982Z,97.89
2017-10-19T22:46:48.521Z,98.14
2017-10-19T22:49:16.093Z,98.05
2017-10-19T22:51:43.665Z,97.92
2017-10-19T22:54:11.201Z,97.94
2017-10-19T22:56:51.304Z,97.65
2017-10-19T22:59:18.915Z,97.60
2017-10-19T23:01:46.485Z,97.84
2017-10-19T23:04:14.012Z,97.99
2017-10-19T23:06:41.904Z,98.04
2017-10-19T23:09:10.332Z,98.11
2017-10-19T23:11:37.873Z,98.19
2017-10-19T23:14:05.420Z,98.19
2017-10-19T23:16:32.960Z,98.25
2017-10-19T23:19:00.539Z,98.21
2017-10-19T23:21:28.101Z,98.15
2017-10-19T23:23:55.636Z,98.05
2017-10-19T23:26:23.223Z,98.17
2017-10-19T23:28:50.812Z,98.22
2017-10-19T23:31:18.348Z,98.44
2017-10-19T23:33:46.001Z,98.23
2017-10-19T23:36:13.536Z,98.08
2017-10-19T23:38:41.076Z,97.78
2017-10-19T23:41:08.612Z,97.80
2017-10-19T23:43:36.142Z,97.73
2017-10-19T23:46:03.679Z,97.72
2017-10-19T23:48:31.252Z,98.06
2017-10-19T23:50:58.825Z,97.90
2017-10-19T23:53:26.400Z,97.67
2017-10-19T23:55:53.941Z,97.90
2017-10-19T23:58:21.480Z,98.07
